sensor_id;sensor_type;location;lat;lon;timestamp;P1;durP1;ratioP1;P2;durP2;ratioP2
52458;SDS011;38372;52.902;6.024;2023-07-30T00:01:56;2.90;;;1.38;;
52458;SDS011;38372;52.902;6.024;2023-07-30T00:04:22;2.38;;;1.20;;
52458;SDS011;38372;52.902;6.024;2023-07-30T00:06:48;3.05;;;1.33;;
52458;SDS011;38372;52.902;6.024;2023-07-30T00:09:14;1.08;;;0.73;;
52458;SDS011;38372;52.902;6.024;2023-07-30T00:11:40;7.55;;;1.80;;
52458;SDS011;38372;52.902;6.024;2023-07-30T00:14:05;2.58;;;0.70;;
52458;SDS011;38372;52.902;6.024;2023-07-30T00:16:31;5.65;;;1.33;;
52458;SDS011;38372;52.902;6.024;2023-07-30T00:18:57;3.33;;;1.17;;
52458;SDS011;38372;52.902;6.024;2023-07-30T00:21:23;4.35;;;0.80;;
52458;SDS011;38372;52.902;6.024;2023-07-30T00:23:48;5.00;;;0.98;;
52458;SDS011;38372;52.902;6.024;2023-07-30T00:26:14;3.17;;;1.35;;
52458;SDS011;38372;52.902;6.024;2023-07-30T00:28:40;6.68;;;1.33;;
52458;SDS011;38372;52.902;6.024;2023-07-30T00:31:06;6.90;;;1.08;;
52458;SDS011;38372;52.902;6.024;2023-07-30T00:33:31;6.47;;;1.38;;
52458;SDS011;38372;52.902;6.024;2023-07-30T00:35:57;5.97;;;2.00;;
52458;SDS011;38372;52.902;6.024;2023-07-30T00:38:23;1.98;;;1.08;;
52458;SDS011;38372;52.902;6.024;2023-07-30T00:40:49;5.88;;;1.65;;
52458;SDS011;38372;52.902;6.024;2023-07-30T00:43:14;3.92;;;1.08;;
52458;SDS011;38372;52.902;6.024;2023-07-30T00:45:41;1.02;;;0.60;;
52458;SDS011;38372;52.902;6.024;2023-07-30T00:48:09;3.65;;;0.90;;
52458;SDS011;38372;52.902;6.024;2023-07-30T00:50:39;3.28;;;1.08;;
52458;SDS011;38372;52.902;6.024;2023-07-30T00:53:05;4.70;;;1.58;;
52458;SDS011;38372;52.902;6.024;2023-07-30T00:55:34;5.05;;;1.48;;
52458;SDS011;38372;52.902;6.024;2023-07-30T00:58:00;3.63;;;1.63;;
52458;SDS011;38372;52.902;6.024;2023-07-30T01:00:27;3.88;;;1.15;;
52458;SDS011;38372;52.902;6.024;2023-07-30T01:02:55;2.50;;;1.40;;
52458;SDS011;38372;52.902;6.024;2023-07-30T01:05:21;2.30;;;1.23;;
52458;SDS011;38372;52.902;6.024;2023-07-30T01:07:46;4.07;;;1.40;;
52458;SDS011;38372;52.902;6.024;2023-07-30T01:10:12;5.90;;;0.90;;
52458;SDS011;38372;52.902;6.024;2023-07-30T01:12:39;3.50;;;1.23;;
52458;SDS011;38372;52.902;6.024;2023-07-30T01:15:06;2.30;;;1.70;;
52458;SDS011;38372;52.902;6.024;2023-07-30T01:17:34;3.10;;;1.00;;
52458;SDS011;38372;52.902;6.024;2023-07-30T01:20:00;4.57;;;1.15;;
52458;SDS011;38372;52.902;6.024;2023-07-30T01:22:26;2.88;;;1.23;;
52458;SDS011;38372;52.902;6.024;2023-07-30T01:24:51;4.88;;;1.10;;
52458;SDS011;38372;52.902;6.024;2023-07-30T01:27:28;3.83;;;1.35;;
52458;SDS011;38372;52.902;6.024;2023-07-30T01:29:57;3.38;;;1.13;;
52458;SDS011;38372;52.902;6.024;2023-07-30T01:32:25;6.43;;;1.27;;
52458;SDS011;38372;52.902;6.024;2023-07-30T01:34:53;4.72;;;2.03;;
52458;SDS011;38372;52.902;6.024;2023-07-30T01:39:48;1.20;;;0.80;;
52458;SDS011;38372;52.902;6.024;2023-07-30T01:42:15;1.77;;;0.80;;
52458;SDS011;38372;52.902;6.024;2023-07-30T01:44:41;2.13;;;0.90;;
52458;SDS011;38372;52.902;6.024;2023-07-30T01:47:07;4.95;;;1.52;;
52458;SDS011;38372;52.902;6.024;2023-07-30T01:49:33;1.65;;;0.93;;
52458;SDS011;38372;52.902;6.024;2023-07-30T01:51:59;2.72;;;1.23;;
52458;SDS011;38372;52.902;6.024;2023-07-30T01:54:25;3.10;;;1.30;;
52458;SDS011;38372;52.902;6.024;2023-07-30T01:56:51;2.28;;;1.00;;
52458;SDS011;38372;52.902;6.024;2023-07-30T01:59:17;3.75;;;0.80;;
52458;SDS011;38372;52.902;6.024;2023-07-30T02:01:43;6.38;;;0.82;;
52458;SDS011;38372;52.902;6.024;2023-07-30T02:04:09;2.40;;;1.52;;
52458;SDS011;38372;52.902;6.024;2023-07-30T02:06:34;5.80;;;1.23;;
52458;SDS011;38372;52.902;6.024;2023-07-30T02:09:00;5.50;;;1.33;;
52458;SDS011;38372;52.902;6.024;2023-07-30T02:11:26;3.80;;;1.02;;
52458;SDS011;38372;52.902;6.024;2023-07-30T02:13:52;4.03;;;1.20;;
52458;SDS011;38372;52.902;6.024;2023-07-30T02:16:18;5.85;;;1.23;;
52458;SDS011;38372;52.902;6.024;2023-07-30T02:18:44;2.55;;;1.05;;
52458;SDS011;38372;52.902;6.024;2023-07-30T02:21:10;2.15;;;0.70;;
52458;SDS011;38372;52.902;6.024;2023-07-30T02:23:35;2.83;;;1.55;;
52458;SDS011;38372;52.902;6.024;2023-07-30T02:26:01;4.55;;;0.93;;
52458;SDS011;38372;52.902;6.024;2023-07-30T02:28:27;4.30;;;0.98;;
52458;SDS011;38372;52.902;6.024;2023-07-30T02:30:53;6.18;;;1.00;;
52458;SDS011;38372;52.902;6.024;2023-07-30T02:33:20;3.65;;;1.25;;
52458;SDS011;38372;52.902;6.024;2023-07-30T02:35:45;3.88;;;1.42;;
52458;SDS011;38372;52.902;6.024;2023-07-30T02:38:11;7.72;;;1.35;;
52458;SDS011;38372;52.902;6.024;2023-07-30T02:40:37;3.60;;;1.10;;
52458;SDS011;38372;52.902;6.024;2023-07-30T02:43:02;4.50;;;1.33;;
52458;SDS011;38372;52.902;6.024;2023-07-30T02:45:29;1.35;;;0.70;;
52458;SDS011;38372;52.902;6.024;2023-07-30T02:47:54;4.32;;;0.82;;
52458;SDS011;38372;52.902;6.024;2023-07-30T02:50:20;3.80;;;1.65;;
52458;SDS011;38372;52.902;6.024;2023-07-30T02:52:46;7.10;;;1.23;;
52458;SDS011;38372;52.902;6.024;2023-07-30T02:55:12;1.30;;;0.77;;
52458;SDS011;38372;52.902;6.024;2023-07-30T02:57:37;1.65;;;0.80;;
52458;SDS011;38372;52.902;6.024;2023-07-30T03:00:03;2.65;;;1.02;;
52458;SDS011;38372;52.902;6.024;2023-07-30T03:02:29;3.67;;;1.25;;
52458;SDS011;38372;52.902;6.024;2023-07-30T03:04:55;2.45;;;1.02;;
52458;SDS011;38372;52.902;6.024;2023-07-30T03:07:21;4.35;;;0.80;;
52458;SDS011;38372;52.902;6.024;2023-07-30T03:09:47;4.65;;;0.80;;
52458;SDS011;38372;52.902;6.024;2023-07-30T03:12:13;3.13;;;0.88;;
52458;SDS011;38372;52.902;6.024;2023-07-30T03:14:39;1.50;;;0.90;;
52458;SDS011;38372;52.902;6.024;2023-07-30T03:17:04;2.45;;;0.95;;
52458;SDS011;38372;52.902;6.024;2023-07-30T03:19:31;4.00;;;1.38;;
52458;SDS011;38372;52.902;6.024;2023-07-30T03:21:56;5.72;;;1.23;;
52458;SDS011;38372;52.902;6.024;2023-07-30T03:24:22;10.77;;;1.33;;
52458;SDS011;38372;52.902;6.024;2023-07-30T03:26:48;4.07;;;1.35;;
52458;SDS011;38372;52.902;6.024;2023-07-30T03:29:14;13.27;;;1.45;;
52458;SDS011;38372;52.902;6.024;2023-07-30T03:31:40;2.53;;;1.27;;
52458;SDS011;38372;52.902;6.024;2023-07-30T03:34:06;4.00;;;1.38;;
52458;SDS011;38372;52.902;6.024;2023-07-30T03:36:31;1.38;;;0.98;;
52458;SDS011;38372;52.902;6.024;2023-07-30T03:38:57;3.15;;;0.63;;
52458;SDS011;38372;52.902;6.024;2023-07-30T03:41:23;2.38;;;1.00;;
52458;SDS011;38372;52.902;6.024;2023-07-30T03:43:49;2.53;;;1.02;;
52458;SDS011;38372;52.902;6.024;2023-07-30T03:46:14;1.05;;;0.52;;
52458;SDS011;38372;52.902;6.024;2023-07-30T03:48:40;5.05;;;0.90;;
52458;SDS011;38372;52.902;6.024;2023-07-30T03:51:06;1.10;;;0.65;;
52458;SDS011;38372;52.902;6.024;2023-07-30T03:53:32;4.53;;;0.75;;
52458;SDS011;38372;52.902;6.024;2023-07-30T03:55:58;4.05;;;0.90;;
52458;SDS011;38372;52.902;6.024;2023-07-30T03:58:24;5.70;;;1.52;;
52458;SDS011;38372;52.902;6.024;2023-07-30T04:00:50;4.45;;;1.20;;
52458;SDS011;38372;52.902;6.024;2023-07-30T04:03:15;3.53;;;0.90;;
52458;SDS011;38372;52.902;6.024;2023-07-30T04:05:41;0.90;;;0.60;;
52458;SDS011;38372;52.902;6.024;2023-07-30T04:08:07;3.90;;;0.95;;
52458;SDS011;38372;52.902;6.024;2023-07-30T04:10:33;1.30;;;0.73;;
52458;SDS011;38372;52.902;6.024;2023-07-30T04:12:59;7.35;;;1.20;;
52458;SDS011;38372;52.902;6.024;2023-07-30T04:15:25;2.80;;;0.93;;
52458;SDS011;38372;52.902;6.024;2023-07-30T04:17:50;8.63;;;0.95;;
52458;SDS011;38372;52.902;6.024;2023-07-30T04:20:16;4.78;;;0.85;;
52458;SDS011;38372;52.902;6.024;2023-07-30T04:22:43;4.78;;;1.23;;
52458;SDS011;38372;52.902;6.024;2023-07-30T04:25:09;6.07;;;0.98;;
52458;SDS011;38372;52.902;6.024;2023-07-30T04:27:38;5.30;;;0.75;;
52458;SDS011;38372;52.902;6.024;2023-07-30T04:30:04;2.15;;;1.08;;
52458;SDS011;38372;52.902;6.024;2023-07-30T04:32:31;1.20;;;0.77;;
52458;SDS011;38372;52.902;6.024;2023-07-30T04:34:57;4.60;;;1.08;;
52458;SDS011;38372;52.902;6.024;2023-07-30T04:37:22;7.85;;;1.27;;
52458;SDS011;38372;52.902;6.024;2023-07-30T04:39:48;2.30;;;1.25;;
52458;SDS011;38372;52.902;6.024;2023-07-30T04:42:14;3.30;;;1.13;;
52458;SDS011;38372;52.902;6.024;2023-07-30T04:44:40;4.97;;;0.70;;
52458;SDS011;38372;52.902;6.024;2023-07-30T04:47:06;2.53;;;1.02;;
52458;SDS011;38372;52.902;6.024;2023-07-30T04:49:32;2.42;;;1.33;;
52458;SDS011;38372;52.902;6.024;2023-07-30T04:51:58;2.83;;;1.05;;
52458;SDS011;38372;52.902;6.024;2023-07-30T04:54:24;7.18;;;1.90;;
52458;SDS011;38372;52.902;6.024;2023-07-30T04:56:50;3.42;;;1.50;;
52458;SDS011;38372;52.902;6.024;2023-07-30T04:59:16;4.65;;;1.35;;
52458;SDS011;38372;52.902;6.024;2023-07-30T05:01:41;9.73;;;2.00;;
52458;SDS011;38372;52.902;6.024;2023-07-30T05:04:07;8.05;;;2.47;;
52458;SDS011;38372;52.902;6.024;2023-07-30T05:06:33;10.27;;;2.95;;
52458;SDS011;38372;52.902;6.024;2023-07-30T05:08:58;8.10;;;3.15;;
52458;SDS011;38372;52.902;6.024;2023-07-30T05:11:24;9.52;;;2.80;;
52458;SDS011;38372;52.902;6.024;2023-07-30T05:13:50;9.38;;;3.88;;
52458;SDS011;38372;52.902;6.024;2023-07-30T05:16:16;14.48;;;4.00;;
52458;SDS011;38372;52.902;6.024;2023-07-30T05:18:41;14.23;;;4.03;;
52458;SDS011;38372;52.902;6.024;2023-07-30T05:21:07;14.55;;;4.63;;
52458;SDS011;38372;52.902;6.024;2023-07-30T05:23:33;8.77;;;3.45;;
52458;SDS011;38372;52.902;6.024;2023-07-30T05:25:59;11.23;;;4.25;;
52458;SDS011;38372;52.902;6.024;2023-07-30T05:28:25;12.25;;;3.78;;
52458;SDS011;38372;52.902;6.024;2023-07-30T05:30:51;6.15;;;1.73;;
52458;SDS011;38372;52.902;6.024;2023-07-30T05:33:17;4.65;;;2.78;;
52458;SDS011;38372;52.902;6.024;2023-07-30T05:35:42;6.25;;;2.33;;
52458;SDS011;38372;52.902;6.024;2023-07-30T05:38:09;8.13;;;2.38;;
52458;SDS011;38372;52.902;6.024;2023-07-30T05:40:35;2.13;;;0.88;;
52458;SDS011;38372;52.902;6.024;2023-07-30T05:43:01;3.55;;;1.63;;
52458;SDS011;38372;52.902;6.024;2023-07-30T05:45:27;3.03;;;0.93;;
52458;SDS011;38372;52.902;6.024;2023-07-30T05:47:53;6.28;;;1.73;;
52458;SDS011;38372;52.902;6.024;2023-07-30T05:50:19;9.63;;;2.22;;
52458;SDS011;38372;52.902;6.024;2023-07-30T05:52:45;5.57;;;1.88;;
52458;SDS011;38372;52.902;6.024;2023-07-30T05:55:11;7.15;;;1.40;;
52458;SDS011;38372;52.902;6.024;2023-07-30T05:57:36;8.93;;;1.10;;
52458;SDS011;38372;52.902;6.024;2023-07-30T06:00:02;5.35;;;1.15;;
52458;SDS011;38372;52.902;6.024;2023-07-30T06:02:28;4.50;;;0.90;;
52458;SDS011;38372;52.902;6.024;2023-07-30T06:04:54;3.10;;;0.98;;
52458;SDS011;38372;52.902;6.024;2023-07-30T06:07:20;2.85;;;1.15;;
52458;SDS011;38372;52.902;6.024;2023-07-30T06:09:46;2.75;;;0.70;;
52458;SDS011;38372;52.902;6.024;2023-07-30T06:12:11;2.90;;;0.93;;
52458;SDS011;38372;52.902;6.024;2023-07-30T06:14:37;2.17;;;1.15;;
52458;SDS011;38372;52.902;6.024;2023-07-30T06:17:03;6.47;;;1.52;;
52458;SDS011;38372;52.902;6.024;2023-07-30T06:19:29;2.92;;;0.70;;
52458;SDS011;38372;52.902;6.024;2023-07-30T06:21:55;6.55;;;1.63;;
52458;SDS011;38372;52.902;6.024;2023-07-30T06:24:21;4.60;;;0.93;;
52458;SDS011;38372;52.902;6.024;2023-07-30T06:26:47;2.83;;;0.57;;
52458;SDS011;38372;52.902;6.024;2023-07-30T06:29:12;1.42;;;0.60;;
52458;SDS011;38372;52.902;6.024;2023-07-30T06:31:38;5.32;;;1.10;;
52458;SDS011;38372;52.902;6.024;2023-07-30T06:34:04;3.25;;;0.68;;
52458;SDS011;38372;52.902;6.024;2023-07-30T06:36:30;2.35;;;1.02;;
52458;SDS011;38372;52.902;6.024;2023-07-30T06:38:55;2.90;;;0.82;;
52458;SDS011;38372;52.902;6.024;2023-07-30T06:41:21;5.32;;;1.85;;
52458;SDS011;38372;52.902;6.024;2023-07-30T06:43:47;0.60;;;0.50;;
52458;SDS011;38372;52.902;6.024;2023-07-30T06:46:13;2.30;;;0.70;;
52458;SDS011;38372;52.902;6.024;2023-07-30T06:48:38;3.03;;;0.85;;
52458;SDS011;38372;52.902;6.024;2023-07-30T06:51:09;5.10;;;0.60;;
52458;SDS011;38372;52.902;6.024;2023-07-30T06:53:35;1.23;;;0.40;;
52458;SDS011;38372;52.902;6.024;2023-07-30T06:56:01;4.22;;;0.85;;
52458;SDS011;38372;52.902;6.024;2023-07-30T06:58:27;1.52;;;0.70;;
52458;SDS011;38372;52.902;6.024;2023-07-30T07:00:52;0.85;;;0.20;;
52458;SDS011;38372;52.902;6.024;2023-07-30T07:03:18;2.83;;;0.63;;
52458;SDS011;38372;52.902;6.024;2023-07-30T07:05:44;3.25;;;0.50;;
52458;SDS011;38372;52.902;6.024;2023-07-30T07:08:10;0.77;;;0.40;;
52458;SDS011;38372;52.902;6.024;2023-07-30T07:10:36;2.53;;;0.63;;
52458;SDS011;38372;52.902;6.024;2023-07-30T07:13:01;1.38;;;0.40;;
52458;SDS011;38372;52.902;6.024;2023-07-30T07:15:27;0.73;;;0.43;;
52458;SDS011;38372;52.902;6.024;2023-07-30T07:17:53;1.08;;;0.47;;
52458;SDS011;38372;52.902;6.024;2023-07-30T07:20:19;0.65;;;0.22;;
52458;SDS011;38372;52.902;6.024;2023-07-30T07:22:45;5.38;;;0.45;;
52458;SDS011;38372;52.902;6.024;2023-07-30T07:25:13;2.80;;;0.63;;
52458;SDS011;38372;52.902;6.024;2023-07-30T07:27:39;1.00;;;0.63;;
52458;SDS011;38372;52.902;6.024;2023-07-30T07:30:05;2.78;;;0.73;;
52458;SDS011;38372;52.902;6.024;2023-07-30T07:32:31;1.05;;;0.40;;
52458;SDS011;38372;52.902;6.024;2023-07-30T07:35:02;7.35;;;0.80;;
52458;SDS011;38372;52.902;6.024;2023-07-30T07:37:28;1.65;;;0.70;;
52458;SDS011;38372;52.902;6.024;2023-07-30T07:39:54;1.25;;;0.57;;
52458;SDS011;38372;52.902;6.024;2023-07-30T07:42:20;2.45;;;0.70;;
52458;SDS011;38372;52.902;6.024;2023-07-30T07:44:46;1.95;;;0.70;;
52458;SDS011;38372;52.902;6.024;2023-07-30T07:47:11;1.00;;;0.50;;
52458;SDS011;38372;52.902;6.024;2023-07-30T07:49:37;3.40;;;0.40;;
52458;SDS011;38372;52.902;6.024;2023-07-30T07:52:03;1.42;;;0.45;;
52458;SDS011;38372;52.902;6.024;2023-07-30T07:54:29;1.85;;;0.43;;
52458;SDS011;38372;52.902;6.024;2023-07-30T07:56:55;0.98;;;0.40;;
52458;SDS011;38372;52.902;6.024;2023-07-30T07:59:21;2.33;;;0.40;;
52458;SDS011;38372;52.902;6.024;2023-07-30T08:01:47;3.88;;;0.63;;
52458;SDS011;38372;52.902;6.024;2023-07-30T08:04:12;2.03;;;0.40;;
52458;SDS011;38372;52.902;6.024;2023-07-30T08:06:38;4.40;;;0.50;;
52458;SDS011;38372;52.902;6.024;2023-07-30T08:09:04;1.33;;;0.57;;
52458;SDS011;38372;52.902;6.024;2023-07-30T08:11:30;2.08;;;0.50;;
52458;SDS011;38372;52.902;6.024;2023-07-30T08:13:56;2.03;;;0.40;;
52458;SDS011;38372;52.902;6.024;2023-07-30T08:16:22;0.63;;;0.40;;
52458;SDS011;38372;52.902;6.024;2023-07-30T08:18:48;1.38;;;0.50;;
52458;SDS011;38372;52.902;6.024;2023-07-30T08:21:14;1.30;;;0.40;;
52458;SDS011;38372;52.902;6.024;2023-07-30T08:23:42;1.13;;;0.30;;
52458;SDS011;38372;52.902;6.024;2023-07-30T08:26:08;1.63;;;0.50;;
52458;SDS011;38372;52.902;6.024;2023-07-30T08:28:34;2.65;;;0.63;;
52458;SDS011;38372;52.902;6.024;2023-07-30T08:31:00;3.35;;;0.93;;
52458;SDS011;38372;52.902;6.024;2023-07-30T08:33:29;0.95;;;0.57;;
52458;SDS011;38372;52.902;6.024;2023-07-30T08:35:58;3.03;;;0.60;;
52458;SDS011;38372;52.902;6.024;2023-07-30T08:40:50;3.63;;;0.50;;
52458;SDS011;38372;52.902;6.024;2023-07-30T08:43:17;0.90;;;0.47;;
52458;SDS011;38372;52.902;6.024;2023-07-30T08:45:43;1.45;;;0.43;;
52458;SDS011;38372;52.902;6.024;2023-07-30T08:48:09;0.47;;;0.35;;
52458;SDS011;38372;52.902;6.024;2023-07-30T08:50:35;0.95;;;0.30;;
52458;SDS011;38372;52.902;6.024;2023-07-30T08:53:03;2.17;;;0.60;;
52458;SDS011;38372;52.902;6.024;2023-07-30T08:55:29;0.50;;;0.30;;
52458;SDS011;38372;52.902;6.024;2023-07-30T08:57:59;1.73;;;0.45;;
52458;SDS011;38372;52.902;6.024;2023-07-30T09:00:28;1.45;;;0.32;;
52458;SDS011;38372;52.902;6.024;2023-07-30T09:03:03;0.57;;;0.22;;
52458;SDS011;38372;52.902;6.024;2023-07-30T09:05:30;0.40;;;0.35;;
52458;SDS011;38372;52.902;6.024;2023-07-30T09:07:56;3.20;;;0.40;;
52458;SDS011;38372;52.902;6.024;2023-07-30T09:10:23;2.17;;;0.52;;
52458;SDS011;38372;52.902;6.024;2023-07-30T09:12:54;2.45;;;0.28;;
52458;SDS011;38372;52.902;6.024;2023-07-30T09:15:31;2.13;;;0.65;;
52458;SDS011;38372;52.902;6.024;2023-07-30T09:17:59;3.65;;;0.35;;
52458;SDS011;38372;52.902;6.024;2023-07-30T09:20:26;4.85;;;0.60;;
52458;SDS011;38372;52.902;6.024;2023-07-30T09:22:52;0.80;;;0.47;;
52458;SDS011;38372;52.902;6.024;2023-07-30T09:25:18;0.80;;;0.50;;
52458;SDS011;38372;52.902;6.024;2023-07-30T09:27:50;1.33;;;0.40;;
52458;SDS011;38372;52.902;6.024;2023-07-30T09:30:21;1.40;;;0.60;;
52458;SDS011;38372;52.902;6.024;2023-07-30T09:32:53;3.03;;;0.47;;
52458;SDS011;38372;52.902;6.024;2023-07-30T09:35:23;1.85;;;0.43;;
52458;SDS011;38372;52.902;6.024;2023-07-30T09:37:50;0.85;;;0.30;;
52458;SDS011;38372;52.902;6.024;2023-07-30T09:40:30;2.47;;;0.32;;
52458;SDS011;38372;52.902;6.024;2023-07-30T09:43:01;1.10;;;0.52;;
52458;SDS011;38372;52.902;6.024;2023-07-30T09:45:28;1.60;;;0.75;;
52458;SDS011;38372;52.902;6.024;2023-07-30T09:47:57;3.50;;;1.27;;
52458;SDS011;38372;52.902;6.024;2023-07-30T09:50:23;2.50;;;0.63;;
52458;SDS011;38372;52.902;6.024;2023-07-30T09:52:49;1.77;;;0.30;;
52458;SDS011;38372;52.902;6.024;2023-07-30T09:55:15;2.22;;;0.75;;
52458;SDS011;38372;52.902;6.024;2023-07-30T09:57:43;1.30;;;0.50;;
52458;SDS011;38372;52.902;6.024;2023-07-30T10:00:09;1.75;;;0.40;;
52458;SDS011;38372;52.902;6.024;2023-07-30T10:02:37;2.47;;;0.50;;
52458;SDS011;38372;52.902;6.024;2023-07-30T10:07:44;1.95;;;0.70;;
52458;SDS011;38372;52.902;6.024;2023-07-30T10:10:18;3.97;;;0.35;;
52458;SDS011;38372;52.902;6.024;2023-07-30T10:12:47;0.55;;;0.30;;
52458;SDS011;38372;52.902;6.024;2023-07-30T10:15:15;1.02;;;0.50;;
52458;SDS011;38372;52.902;6.024;2023-07-30T10:17:48;1.42;;;0.50;;
52458;SDS011;38372;52.902;6.024;2023-07-30T10:20:26;1.38;;;0.63;;
52458;SDS011;38372;52.902;6.024;2023-07-30T10:22:58;4.43;;;0.98;;
52458;SDS011;38372;52.902;6.024;2023-07-30T10:31:01;1.77;;;0.32;;
52458;SDS011;38372;52.902;6.024;2023-07-30T10:33:45;1.17;;;0.52;;
52458;SDS011;38372;52.902;6.024;2023-07-30T10:36:14;2.55;;;0.60;;
52458;SDS011;38372;52.902;6.024;2023-07-30T10:38:43;1.80;;;0.55;;
52458;SDS011;38372;52.902;6.024;2023-07-30T10:41:13;1.05;;;0.63;;
52458;SDS011;38372;52.902;6.024;2023-07-30T10:43:42;2.45;;;0.30;;
52458;SDS011;38372;52.902;6.024;2023-07-30T10:46:12;1.77;;;0.40;;
52458;SDS011;38372;52.902;6.024;2023-07-30T10:48:39;2.40;;;0.50;;
52458;SDS011;38372;52.902;6.024;2023-07-30T10:51:09;1.17;;;0.52;;
52458;SDS011;38372;52.902;6.024;2023-07-30T10:53:36;2.72;;;0.40;;
52458;SDS011;38372;52.902;6.024;2023-07-30T10:56:02;3.08;;;0.40;;
52458;SDS011;38372;52.902;6.024;2023-07-30T10:58:32;1.75;;;0.70;;
52458;SDS011;38372;52.902;6.024;2023-07-30T11:01:01;1.08;;;0.50;;
52458;SDS011;38372;52.902;6.024;2023-07-30T11:03:28;0.95;;;0.22;;
52458;SDS011;38372;52.902;6.024;2023-07-30T11:05:54;1.48;;;0.13;;
52458;SDS011;38372;52.902;6.024;2023-07-30T11:10:59;1.60;;;0.35;;
52458;SDS011;38372;52.902;6.024;2023-07-30T11:13:25;3.08;;;0.40;;
52458;SDS011;38372;52.902;6.024;2023-07-30T11:15:51;1.98;;;0.55;;
52458;SDS011;38372;52.902;6.024;2023-07-30T11:18:17;1.63;;;0.43;;
52458;SDS011;38372;52.902;6.024;2023-07-30T11:20:43;1.85;;;0.57;;
52458;SDS011;38372;52.902;6.024;2023-07-30T11:23:18;1.30;;;0.50;;
52458;SDS011;38372;52.902;6.024;2023-07-30T11:25:50;2.03;;;0.30;;
52458;SDS011;38372;52.902;6.024;2023-07-30T11:28:35;3.63;;;0.80;;
52458;SDS011;38372;52.902;6.024;2023-07-30T11:31:10;1.00;;;0.43;;
52458;SDS011;38372;52.902;6.024;2023-07-30T11:33:44;1.13;;;0.30;;
52458;SDS011;38372;52.902;6.024;2023-07-30T11:36:12;2.20;;;0.40;;
52458;SDS011;38372;52.902;6.024;2023-07-30T11:38:44;3.17;;;0.30;;
52458;SDS011;38372;52.902;6.024;2023-07-30T11:41:10;0.95;;;0.32;;
52458;SDS011;38372;52.902;6.024;2023-07-30T11:43:41;1.65;;;0.55;;
52458;SDS011;38372;52.902;6.024;2023-07-30T11:46:12;0.88;;;0.28;;
52458;SDS011;38372;52.902;6.024;2023-07-30T11:48:46;2.53;;;0.50;;
52458;SDS011;38372;52.902;6.024;2023-07-30T11:53:58;2.42;;;0.75;;
52458;SDS011;38372;52.902;6.024;2023-07-30T11:56:28;2.00;;;0.45;;
52458;SDS011;38372;52.902;6.024;2023-07-30T11:58:56;1.65;;;0.75;;
52458;SDS011;38372;52.902;6.024;2023-07-30T12:01:25;0.52;;;0.20;;
52458;SDS011;38372;52.902;6.024;2023-07-30T12:03:58;0.77;;;0.30;;
52458;SDS011;38372;52.902;6.024;2023-07-30T12:06:41;2.92;;;0.50;;
52458;SDS011;38372;52.902;6.024;2023-07-30T12:09:21;1.25;;;0.52;;
52458;SDS011;38372;52.902;6.024;2023-07-30T12:11:50;3.40;;;0.50;;
52458;SDS011;38372;52.902;6.024;2023-07-30T12:14:18;2.72;;;0.65;;
52458;SDS011;38372;52.902;6.024;2023-07-30T12:16:45;1.27;;;0.40;;
52458;SDS011;38372;52.902;6.024;2023-07-30T12:19:11;0.52;;;0.28;;
52458;SDS011;38372;52.902;6.024;2023-07-30T12:21:36;2.70;;;0.35;;
52458;SDS011;38372;52.902;6.024;2023-07-30T12:24:02;1.02;;;0.70;;
52458;SDS011;38372;52.902;6.024;2023-07-30T12:26:28;0.30;;;0.28;;
52458;SDS011;38372;52.902;6.024;2023-07-30T12:28:54;2.60;;;0.43;;
52458;SDS011;38372;52.902;6.024;2023-07-30T12:31:20;1.25;;;0.52;;
52458;SDS011;38372;52.902;6.024;2023-07-30T12:33:46;0.40;;;0.20;;
52458;SDS011;38372;52.902;6.024;2023-07-30T12:36:12;2.25;;;0.70;;
52458;SDS011;38372;52.902;6.024;2023-07-30T12:38:38;2.22;;;0.57;;
52458;SDS011;38372;52.902;6.024;2023-07-30T12:41:04;1.77;;;0.32;;
52458;SDS011;38372;52.902;6.024;2023-07-30T12:43:30;1.45;;;0.40;;
52458;SDS011;38372;52.902;6.024;2023-07-30T12:45:56;1.48;;;0.90;;
52458;SDS011;38372;52.902;6.024;2023-07-30T12:48:22;4.00;;;0.30;;
52458;SDS011;38372;52.902;6.024;2023-07-30T12:50:47;0.45;;;0.25;;
52458;SDS011;38372;52.902;6.024;2023-07-30T12:53:13;2.72;;;0.35;;
52458;SDS011;38372;52.902;6.024;2023-07-30T12:55:39;3.63;;;0.22;;
52458;SDS011;38372;52.902;6.024;2023-07-30T12:58:05;1.60;;;0.60;;
52458;SDS011;38372;52.902;6.024;2023-07-30T13:00:31;0.77;;;0.20;;
52458;SDS011;38372;52.902;6.024;2023-07-30T13:02:58;3.78;;;0.40;;
52458;SDS011;38372;52.902;6.024;2023-07-30T13:05:24;0.10;;;0.10;;
52458;SDS011;38372;52.902;6.024;2023-07-30T13:07:50;0.43;;;0.20;;
52458;SDS011;38372;52.902;6.024;2023-07-30T13:10:16;3.25;;;0.30;;
52458;SDS011;38372;52.902;6.024;2023-07-30T13:12:42;3.90;;;0.43;;
52458;SDS011;38372;52.902;6.024;2023-07-30T13:15:08;4.35;;;0.22;;
52458;SDS011;38372;52.902;6.024;2023-07-30T13:17:34;3.95;;;0.65;;
52458;SDS011;38372;52.902;6.024;2023-07-30T13:19:59;0.52;;;0.30;;
52458;SDS011;38372;52.902;6.024;2023-07-30T13:22:25;1.25;;;0.30;;
52458;SDS011;38372;52.902;6.024;2023-07-30T13:24:51;3.53;;;0.60;;
52458;SDS011;38372;52.902;6.024;2023-07-30T13:27:17;1.58;;;0.68;;
52458;SDS011;38372;52.902;6.024;2023-07-30T13:29:43;0.85;;;0.32;;
52458;SDS011;38372;52.902;6.024;2023-07-30T13:32:10;1.17;;;0.50;;
52458;SDS011;38372;52.902;6.024;2023-07-30T13:34:35;0.60;;;0.32;;
52458;SDS011;38372;52.902;6.024;2023-07-30T13:37:02;1.05;;;0.30;;
52458;SDS011;38372;52.902;6.024;2023-07-30T13:39:28;1.25;;;0.63;;
52458;SDS011;38372;52.902;6.024;2023-07-30T13:41:53;2.75;;;0.30;;
52458;SDS011;38372;52.902;6.024;2023-07-30T13:44:19;1.77;;;0.60;;
52458;SDS011;38372;52.902;6.024;2023-07-30T13:46:45;0.70;;;0.50;;
52458;SDS011;38372;52.902;6.024;2023-07-30T13:49:11;0.57;;;0.30;;
52458;SDS011;38372;52.902;6.024;2023-07-30T13:51:37;2.20;;;0.30;;
52458;SDS011;38372;52.902;6.024;2023-07-30T13:54:03;0.38;;;0.22;;
52458;SDS011;38372;52.902;6.024;2023-07-30T13:56:30;1.42;;;0.60;;
52458;SDS011;38372;52.902;6.024;2023-07-30T13:58:56;0.50;;;0.30;;
52458;SDS011;38372;52.902;6.024;2023-07-30T14:01:21;0.82;;;0.20;;
52458;SDS011;38372;52.902;6.024;2023-07-30T14:03:47;1.00;;;0.40;;
52458;SDS011;38372;52.902;6.024;2023-07-30T14:06:13;2.20;;;0.50;;
52458;SDS011;38372;52.902;6.024;2023-07-30T14:08:39;0.38;;;0.20;;
52458;SDS011;38372;52.902;6.024;2023-07-30T14:11:05;0.77;;;0.77;;
52458;SDS011;38372;52.902;6.024;2023-07-30T14:13:31;0.75;;;0.50;;
52458;SDS011;38372;52.902;6.024;2023-07-30T14:15:56;2.28;;;0.20;;
52458;SDS011;38372;52.902;6.024;2023-07-30T14:18:23;1.15;;;0.20;;
52458;SDS011;38372;52.902;6.024;2023-07-30T14:20:50;1.98;;;0.35;;
52458;SDS011;38372;52.902;6.024;2023-07-30T14:23:16;2.35;;;0.40;;
52458;SDS011;38372;52.902;6.024;2023-07-30T14:25:43;2.03;;;0.65;;
52458;SDS011;38372;52.902;6.024;2023-07-30T14:28:09;2.63;;;0.40;;
52458;SDS011;38372;52.902;6.024;2023-07-30T14:30:35;0.82;;;0.20;;
52458;SDS011;38372;52.902;6.024;2023-07-30T14:33:02;2.35;;;0.50;;
52458;SDS011;38372;52.902;6.024;2023-07-30T14:35:28;3.38;;;0.38;;
52458;SDS011;38372;52.902;6.024;2023-07-30T14:37:54;1.60;;;0.75;;
52458;SDS011;38372;52.902;6.024;2023-07-30T14:40:20;2.95;;;0.45;;
52458;SDS011;38372;52.902;6.024;2023-07-30T14:42:47;0.30;;;0.20;;
52458;SDS011;38372;52.902;6.024;2023-07-30T14:45:12;1.90;;;0.70;;
52458;SDS011;38372;52.902;6.024;2023-07-30T14:47:38;0.77;;;0.30;;
52458;SDS011;38372;52.902;6.024;2023-07-30T14:50:05;1.95;;;0.20;;
52458;SDS011;38372;52.902;6.024;2023-07-30T14:52:31;1.85;;;0.57;;
52458;SDS011;38372;52.902;6.024;2023-07-30T14:54:57;0.50;;;0.30;;
52458;SDS011;38372;52.902;6.024;2023-07-30T14:57:22;0.95;;;0.55;;
52458;SDS011;38372;52.902;6.024;2023-07-30T14:59:49;1.35;;;0.35;;
52458;SDS011;38372;52.902;6.024;2023-07-30T15:02:15;0.73;;;0.20;;
52458;SDS011;38372;52.902;6.024;2023-07-30T15:04:40;0.80;;;0.28;;